Latest Weather Observations for Brisbane Airport

IDQ60801

Issued at 10:02 pm EST Thursday 5 May 2016 (issued every 30 minutes, with the page automatically refreshed every 10 minutes)

About weather observations | Map of weather stations | Latest weather observations for QLD | Other Formats
Station Details ID: 040842 Name: BRISBANE AERO Lat: -27.39 Lon: 153.13 Height: 4.51 m
Data from the previous 72 hours. | See also: Recent months at Brisbane Airport
Date/Time
EST
Temp
°C
App
Temp
°C
Dew
Point
Rel
Hum
%
Delta-T
°C
Wind Press
QNH
hPa
Press
MSL
hPa
Rain
since 9 am
mm
Dir
 
Spd
km/h
Gust
km/h
Spd
kts
Gust
kts
05/10:00pm 18.8 19.1 16.1 84 1.6 SSW 9 11 5 6 1019.4 1019.3 0.0
05/09:30pm 18.9 19.6 16.2 84 1.6 S 7 9 4 5 1019.6 1019.5 0.0
05/09:00pm 18.5 20.2 16.3 87 1.3 ESE 2 6 1 3 1019.7 1019.6 0.0
05/08:30pm 20.4 21.9 17.5 83 1.8 ESE 6 7 3 4 1019.7 1019.6 0.0
05/08:00pm 21.1 22.6 17.7 81 2.1 E 6 7 3 4 1019.6 1019.5 0.0
05/07:30pm 21.3 22.4 17.0 76 2.6 E 7 9 4 5 1019.2 1019.1 0.0
05/07:00pm 21.3 22.2 16.7 75 2.8 ESE 7 9 4 5 1019.0 1018.9 0.0
05/06:30pm 21.5 22.2 16.2 72 3.2 ESE 7 11 4 6 1018.7 1018.6 0.0
05/06:00pm 21.8 22.0 15.8 68 3.6 ESE 9 13 5 7 1018.3 1018.2 0.0
05/05:30pm 22.4 22.6 15.7 66 4.0 ESE 9 15 5 8 1018.2 1018.1 0.0
05/05:00pm 22.8 23.2 16.4 67 3.9 ESE 9 17 5 9 1018.0 1017.9 0.0
05/04:30pm 23.3 23.1 16.8 67 4.0 E 13 20 7 11 1017.8 1017.8 0.0
05/04:00pm 23.9 23.2 16.4 63 4.6 ESE 15 26 8 14 1017.7 1017.7 0.0
05/03:30pm 24.2 23.4 16.1 60 4.9 ESE 15 24 8 13 1017.7 1017.7 0.0
05/03:00pm 24.4 23.9 16.0 59 5.1 E 13 20 7 11 1017.7 1017.7 0.0
05/02:30pm 24.8 23.8 15.5 56 5.6 ESE 15 24 8 13 1017.5 1017.5 0.0
05/02:00pm 25.1 24.1 15.5 55 5.8 ESE 15 24 8 13 1017.6 1017.6 0.0
05/01:30pm 25.2 24.1 15.4 54 5.9 ESE 15 24 8 13 1017.8 1017.8 0.0
05/01:00pm 25.0 23.3 14.8 53 6.1 ESE 17 26 9 14 1018.2 1018.1 0.0
05/12:30pm 25.5 23.9 15.0 52 6.3 E 17 28 9 15 1018.5 1018.4 0.0
05/12:00pm 25.1 23.5 15.1 53 6.0 ESE 17 26 9 14 1019.0 1018.9 0.0
05/11:30am 25.0 23.6 15.6 56 5.7 ESE 17 22 9 12 1019.3 1019.2 0.0
05/11:00am 25.2 24.4 16.0 56 5.6 ESE 15 24 8 13 1019.8 1019.7 0.0
05/10:30am 24.8 24.4 15.1 54 5.8 SE 11 15 6 8 1020.0 1019.9 0.0
05/10:00am 24.0 23.9 15.9 60 4.9 S 11 17 6 9 1020.3 1020.2 0.0
05/09:30am 23.0 22.3 15.3 62 4.6 S 13 19 7 10 1020.7 1020.6 0.0
05/09:00am 21.5 20.3 15.1 67 3.8 SW 15 19 8 10 1020.9 1020.8 0.0
05/08:30am 20.3 19.1 15.0 71 3.1 SSW 15 19 8 10 1020.7 1020.6 0.0
05/08:00am 19.0 17.9 15.2 78 2.2 SSW 15 19 8 10 1020.3 1020.2 0.0
05/07:30am 17.8 16.7 15.2 85 1.5 SSW 15 19 8 10 1020.0 1019.9 0.0
05/07:00am 16.5 15.1 14.6 88 1.1 SSW 15 19 8 10 1019.7 1019.6 0.0
05/06:30am 15.9 13.8 13.6 86 1.3 SSW 17 20 9 11 1019.3 1019.2 0.0
05/06:00am 16.2 14.4 13.3 83 1.6 SSW 15 17 8 9 1019.1 1019.0 0.0
05/05:30am 16.1 13.9 13.4 84 1.5 SSW 17 19 9 10 1018.7 1018.6 0.0
05/05:00am 16.2 14.5 13.7 85 1.4 SSW 15 19 8 10 1018.4 1018.3 0.0
05/04:30am 15.7 13.7 13.9 89 1.0 SSW 17 20 9 11 1018.3 1018.2 0.0
05/04:00am 15.6 14.1 14.2 91 0.8 SSW 15 17 8 9 1018.1 1018.0 0.0
05/03:30am 16.1 14.6 14.3 89 1.0 SSW 15 17 8 9 1018.0 1017.9 0.0
05/03:00am 16.2 15.0 15.0 93 0.7 SSW 15 19 8 10 1017.7 1017.7 0.0
05/02:30am 17.9 16.9 15.7 87 1.3 SSW 15 19 8 10 1017.6 1017.6 0.0
05/02:00am 17.3 16.8 15.8 91 0.9 SSW 13 17 7 9 1017.7 1017.7 0.0
05/01:30am 17.4 16.9 15.9 91 0.9 SSW 13 17 7 9 1017.8 1017.8 0.0
05/01:00am 16.6 16.0 15.6 94 0.6 SSW 13 17 7 9 1018.1 1018.0 0.0
05/12:30am 16.8 17.1 15.9 94 0.5 SSW 9 11 5 6 1018.3 1018.2 0.0
05/12:00am 17.7 18.1 16.2 91 0.9 SSW 9 11 5 6 1018.4 1018.3 0.0
 
Date/Time
EST
Temp
°C
App
Temp
°C
Dew
Point
Rel
Hum
%
Delta-T
°C
Wind Press
QNH
hPa
Press
MSL
hPa
Rain
since 9 am
mm
Dir
 
Spd
km/h
Gust
km/h
Spd
kts
Gust
kts
04/11:30pm 17.5 18.2 16.0 91 0.9 SSW 7 9 4 5 1018.7 1018.6 0.0
04/11:00pm 17.8 18.3 16.5 92 0.8 SSW 9 13 5 7 1018.7 1018.6 0.0
04/10:30pm 18.7 19.3 16.7 88 1.2 SSW 9 11 5 6 1018.9 1018.8 0.0
04/10:00pm 18.7 19.2 16.5 87 1.3 SW 9 9 5 5 1018.9 1018.8 0.0
04/09:30pm 19.8 20.4 16.8 83 1.8 WSW 9 11 5 6 1018.8 1018.7 0.0
04/09:00pm 19.8 22.3 17.2 85 1.6 CALM 0 0 0 0 1018.6 1018.5 0.0
04/08:30pm 21.5 23.6 18.1 81 2.1 E 4 9 2 5 1018.5 1018.4 0.0
04/08:00pm 22.0 22.9 17.5 75 2.8 E 9 13 5 7 1018.2 1018.1 0.0
04/07:30pm 22.4 22.8 17.2 72 3.2 ESE 11 17 6 9 1017.7 1017.7 0.0
04/07:00pm 22.4 22.6 16.8 70 3.4 E 11 20 6 11 1017.4 1017.4 0.0
04/06:30pm 22.5 22.2 16.4 68 3.7 ESE 13 20 7 11 1017.0 1017.0 0.0
04/06:00pm 22.7 22.2 15.9 65 4.1 ESE 13 20 7 11 1016.6 1016.6 0.0
04/05:30pm 22.8 22.6 15.8 64 4.2 E 11 22 6 12 1016.1 1016.1 0.0
04/05:00pm 23.2 22.4 15.0 60 4.9 E 13 22 7 12 1015.7 1015.7 0.0
04/04:30pm 23.7 21.7 13.8 53 5.8 E 17 28 9 15 1015.4 1015.4 0.0
04/04:00pm 24.4 22.0 12.6 47 6.8 E 17 26 9 14 1015.1 1015.1 0.0
04/03:30pm 24.9 22.6 11.7 43 7.5 E 15 24 8 13 1014.9 1014.9 0.0
04/03:00pm 25.0 22.3 11.8 43 7.5 ESE 17 28 9 15 1014.5 1014.5 0.0
04/02:30pm 25.3 22.2 11.5 42 7.8 E 19 30 10 16 1014.1 1014.1 0.0
04/02:00pm 25.2 22.3 9.7 37 8.5 E 15 22 8 12 1014.2 1014.2 0.0
04/01:30pm 25.5 22.6 10.9 40 8.2 E 17 26 9 14 1014.1 1014.1 0.0
04/01:00pm 26.2 24.2 10.0 36 9.0 E 11 19 6 10 1014.2 1014.2 0.0
04/12:30pm 26.5 22.5 5.1 25 10.9 S 15 20 8 11 1014.4 1014.4 0.0
04/12:00pm 26.6 22.2 5.0 25 11.0 SSW 17 24 9 13 1014.9 1014.9 0.0
04/11:30am 26.0 21.4 5.5 27 10.5 SW 19 30 10 16 1015.2 1015.2 0.0
04/11:00am 25.6 21.7 6.9 30 9.8 SW 17 28 9 15 1015.9 1015.9 0.0
04/10:30am 24.8 21.0 8.9 36 8.6 SW 19 28 10 15 1016.3 1016.3 0.0
04/10:00am 24.3 20.9 10.4 41 7.7 SSW 19 28 10 15 1016.6 1016.6 0.0
04/09:30am 23.5 20.6 12.2 49 6.4 SSW 19 26 10 14 1016.8 1016.8 0.0
04/09:00am 22.6 20.5 13.6 56 5.2 SSW 17 24 9 13 1016.9 1016.9 0.0
04/08:30am 21.3 20.5 15.0 67 3.7 SSW 13 17 7 9 1016.8 1016.8 -
04/08:00am 19.2 19.8 15.8 81 2.0 SSW 7 9 4 5 1016.6 1016.6 -
04/07:30am 18.9 20.9 15.9 83 1.8 CALM 0 2 0 1 1015.9 1015.9 -
04/07:00am 18.7 19.1 15.3 80 2.0 WSW 7 9 4 5 1015.6 1015.6 -
04/06:30am 17.2 17.8 15.3 88 1.1 WNW 6 9 3 5 1015.0 1015.0 -
04/06:00am 16.9 17.0 15.4 91 0.9 W 9 11 5 6 1014.4 1014.4 -
04/05:30am 17.4 19.4 15.9 91 0.9 CALM 0 0 0 0 1014.2 1014.2 -
04/05:00am 16.9 17.9 15.4 91 0.9 N 4 7 2 4 1013.9 1013.9 -
04/04:30am 17.3 19.2 15.8 91 0.9 CALM 0 0 0 0 1013.3 1013.3 -
04/04:00am 18.0 19.3 16.1 89 1.1 SSW 4 7 2 4 1013.1 1013.1 -
04/03:30am 18.8 21.0 16.5 86 1.4 CALM 0 0 0 0 1012.9 1012.9 -
04/03:00am 18.8 20.8 16.1 84 1.6 CALM 0 7 0 4 1012.6 1012.6 0.0
04/02:30am 19.4 21.4 15.9 80 2.1 CALM 0 0 0 0 1012.9 1012.9 -
04/02:00am 20.2 21.4 16.0 77 2.5 W 4 7 2 4 1012.7 1012.7 -
04/01:30am 20.6 20.4 15.6 73 3.0 WNW 11 13 6 7 1013.0 1013.0 -
04/01:00am 20.2 20.7 16.6 80 2.2 WNW 9 11 5 6 1013.1 1013.1 -
04/12:30am 20.4 22.6 16.6 79 2.3 CALM 0 0 0 0 1013.3 1013.3 -
04/12:00am 20.5 22.8 17.6 83 1.8 W 2 7 1 4 1013.4 1013.4 -
 
Date/Time
EST
Temp
°C
App
Temp
°C
Dew
Point
Rel
Hum
%
Delta-T
°C
Wind Press
QNH
hPa
Press
MSL
hPa
Rain
since 9 am
mm
Dir
 
Spd
km/h
Gust
km/h
Spd
kts
Gust
kts
03/11:30pm 20.5 23.5 18.4 88 1.3 CALM 0 0 0 0 1013.3 1013.3 -
03/11:00pm 20.3 22.7 17.9 86 1.5 W 2 11 1 6 1013.4 1013.4 -
03/10:30pm 21.0 22.5 18.1 83 1.8 NW 7 9 4 5 1013.4 1013.4 -
03/10:00pm 21.3 24.5 18.8 86 1.6 CALM 0 4 0 2 1013.6 1013.6 -
03/09:30pm 21.3 23.1 19.6 90 1.1 NNW 9 9 5 5 1013.6 1013.6 -
03/09:00pm 21.5 25.0 20.3 93 0.8 NW 2 6 1 3 1013.6 1013.6 0.0
03/08:30pm 22.1 24.8 20.7 92 0.9 NW 7 9 4 5 1013.5 1013.5 -
03/08:00pm 21.7 23.6 20.6 93 0.7 N 11 13 6 7 1013.2 1013.2 -
03/07:30pm 22.2 24.2 20.8 92 0.9 N 11 17 6 9 1012.9 1012.9 -
03/07:00pm 22.4 26.1 20.7 90 1.1 NNW 2 9 1 5 1012.6 1012.6 -
03/06:30pm 22.6 24.3 20.9 90 1.1 NNW 13 19 7 10 1012.1 1012.1 -
03/06:00pm 22.7 23.7 21.0 90 1.1 N 17 20 9 11 1011.7 1011.7 -
03/05:30pm 22.9 25.5 20.4 86 1.6 N 7 13 4 7 1011.3 1011.3 -
03/05:00pm 23.1 25.6 21.1 88 1.3 NNE 9 11 5 6 1010.8 1010.8 -
03/04:30pm 25.3 26.1 19.1 68 4.0 NNE 13 15 7 8 1010.7 1010.7 -
03/04:00pm 25.4 26.6 19.0 67 4.1 NNE 11 13 6 7 1010.5 1010.5 -
03/03:30pm 26.4 27.0 18.7 62 4.9 NNE 13 15 7 8 1010.3 - -
03/03:00pm 26.0 27.0 19.5 67 4.2 NNE 13 17 7 9 1010.2 1010.2 0.0
03/02:30pm 25.6 26.0 19.9 70 3.7 NNE 17 20 9 11 1010.2 1010.2 0.0
03/02:00pm 26.8 27.6 19.9 66 4.5 NNE 15 17 8 9 1010.3 1010.3 0.0
03/01:30pm 27.9 27.2 15.3 46 7.7 W 13 20 7 11 1010.5 1010.5 0.0
03/01:00pm 27.2 27.3 16.6 52 6.6 W 11 26 6 14 1010.9 1010.9 0.0
03/12:30pm 27.1 26.9 16.6 52 6.5 WNW 13 19 7 10 1011.4 1011.4 0.0
03/12:00pm 26.9 27.0 17.5 56 5.9 WSW 13 19 7 10 1012.0 1012.0 0.0
03/11:30am 25.9 26.5 17.8 61 5.1 WSW 11 17 6 9 1012.7 1012.7 0.0
03/11:00am 25.2 25.7 17.5 62 4.8 WSW 11 20 6 11 1013.2 1013.2 0.0
03/10:30am 25.3 25.0 18.2 64 4.5 W 17 22 9 12 1013.7 1013.7 0.0
03/10:00am 24.0 24.1 18.3 70 3.6 WSW 15 20 8 11 1013.9 1013.9 0.0
03/09:30am 22.8 23.7 19.2 80 2.3 SW 13 17 7 9 1014.2 1014.2 0.0
03/09:00am 21.4 22.6 19.8 91 1.0 WSW 13 15 7 8 1014.5 1014.5 19.2
03/08:30am 20.3 21.3 19.5 95 0.5 SW 13 17 7 9 1014.8 1014.8 19.2
03/08:00am 19.6 20.0 19.1 97 0.3 SSW 15 19 8 10 1014.7 1014.7 19.2
03/07:42am 19.3 20.1 19.0 98 0.2 SSW 13 17 7 9 1014.6 1014.6 19.2
03/07:30am 19.4 20.1 18.9 97 0.3 SSW 13 17 7 9 1014.5 1014.5 19.2
03/07:00am 19.2 20.2 18.6 96 0.4 SSW 11 15 6 8 1014.3 1014.3 19.2
03/06:30am 19.3 20.7 18.7 96 0.4 SSW 9 11 5 6 1014.2 1014.2 19.2
03/06:00am 19.5 20.3 19.0 97 0.3 SSW 13 15 7 8 1013.9 1013.9 19.2
03/05:30am 19.8 21.1 19.3 97 0.3 SSW 11 15 6 8 1013.7 1013.7 19.2
03/05:00am 20.3 21.5 20.0 98 0.2 SW 13 19 7 10 1013.4 1013.4 19.2
03/04:48am 21.0 23.2 20.5 97 0.3 WSW 9 11 5 6 1013.2 1013.2 19.2
03/04:30am 21.1 23.8 20.6 97 0.3 WSW 7 7 4 4 1013.1 1013.1 19.2
03/04:00am 21.1 23.8 20.6 97 0.3 SW 7 9 4 5 1013.0 1013.0 19.2
03/03:30am 21.2 23.9 20.7 97 0.3 WNW 7 9 4 5 1013.1 1013.1 19.2
03/03:00am 21.2 24.4 20.6 96 0.4 ESE 4 7 2 4 1013.1 1013.1 19.2
03/02:47am 21.3 24.9 20.5 95 0.5 ESE 2 7 1 4 1013.2 1013.2 19.2
03/02:30am 21.2 23.8 20.4 95 0.5 ESE 7 9 4 5 1013.4 1013.4 19.2
03/02:00am 21.1 23.8 20.3 95 0.5 ENE 6 9 3 5 1013.6 1013.6 19.2
03/01:30am 21.0 23.6 20.5 97 0.3 E 7 11 4 6 1014.4 1014.4 19.2
03/01:00am 21.1 23.7 20.5 96 0.4 SSE 7 11 4 6 1014.9 1014.9 19.2
03/12:30am 21.3 24.5 20.5 95 0.5 ENE 4 17 2 9 1015.2 1015.2 19.2
03/12:22am 21.4 21.7 20.3 93 0.7 SW 19 30 10 16 1015.0 1015.0 19.2
03/12:17am 21.3 21.7 21.0 98 0.2 WSW 20 30 11 16 1015.5 1015.5 15.8
03/12:00am 21.7 25.5 20.9 95 0.5 E 2 15 1 8 1015.1 1015.1 2.0
 
Date/Time
EST
Temp
°C
App
Temp
°C
Dew
Point
Rel
Hum
%
Delta-T
°C
Wind Press
QNH
hPa
Press
MSL
hPa
Rain
since 9 am
mm
Dir
 
Spd
km/h
Gust
km/h
Spd
kts
Gust
kts
02/11:30pm 21.7 25.7 20.6 93 0.7 CALM 0 0 0 0 1014.9 1014.9 0.0
02/11:00pm 21.7 25.7 20.5 93 0.8 CALM 0 4 0 2 1015.1 1015.1 0.0
02/10:30pm 21.9 25.4 20.3 91 1.0 ESE 2 6 1 3 1015.6 1015.6 0.0

Other Formats:

Comma delimited format used in spreadsheet applications
http://www.bom.gov.au/fwo/IDQ60801/IDQ60801.94578.axf

JavaScript Object Notation format (JSON) in row-major order
http://www.bom.gov.au/fwo/IDQ60801/IDQ60801.94578.json